Time;durP1;ratioP1;P1;durP2;ratioP2;P2;SDS_P1;SDS_P2;PMS_P1;PMS_P2;Temp;Humidity;BMP_temperature;BMP_pressure;BME280_temperature;BME280_humidity;BME280_pressure;Samples;Min_cycle;Max_cycle;Signal;HPM_P1;HPM_P2
2022/05/14 00:00:39;;;;;;;1999.90;999.90;;;15.80;99.90;;;;;;4918304;29;20032;-77
2022/05/14 00:03:05;;;;;;;1999.90;999.90;;;15.90;99.90;;;;;;4918356;29;20480;-77
2022/05/14 00:05:31;;;;;;;1999.90;999.90;;;15.90;99.90;;;;;;4917587;29;20087;-77
2022/05/14 00:07:57;;;;;;;1999.90;999.90;;;15.90;99.90;;;;;;4914422;29;20405;-77
2022/05/14 00:10:25;;;;;;;1999.90;999.90;;;15.90;99.90;;;;;;4908560;29;20075;-77
2022/05/14 00:13:03;;;;;;;1999.90;999.90;;;15.90;99.90;;;;;;4917300;29;20038;-82
2022/05/14 00:15:37;;;;;;;1999.90;999.90;;;15.90;99.90;;;;;;4917322;29;20435;-77
2022/05/14 00:18:05;;;;;;;1999.90;999.90;;;15.90;99.90;;;;;;4916615;29;20035;-77
2022/05/14 00:20:32;;;;;;;1999.90;999.90;;;15.90;99.90;;;;;;4916383;29;20024;-77
2022/05/14 00:22:58;;;;;;;1999.90;999.90;;;15.90;99.90;;;;;;4917701;29;20039;-77
2022/05/14 00:25:25;;;;;;;1999.90;999.90;;;15.90;99.90;;;;;;4917186;29;20116;-82
2022/05/14 00:27:51;;;;;;;1999.90;999.90;;;15.80;99.90;;;;;;4922888;29;20479;-77
2022/05/14 00:30:19;;;;;;;1999.90;999.90;;;15.80;99.90;;;;;;4917062;29;20051;-77
2022/05/14 00:32:47;;;;;;;1999.90;999.90;;;15.80;99.90;;;;;;4905743;29;20478;-77
2022/05/14 00:35:13;;;;;;;1999.90;999.90;;;15.70;99.90;;;;;;4904478;29;20027;-77
2022/05/14 00:37:39;;;;;;;1999.90;999.90;;;15.70;99.90;;;;;;4919949;29;20027;-77
2022/05/14 00:40:09;;;;;;;1999.90;999.90;;;15.60;99.90;;;;;;4921805;29;20086;-77
2022/05/14 00:42:35;;;;;;;1999.90;999.90;;;15.60;99.90;;;;;;4921571;29;20491;-82
2022/05/14 00:45:01;;;;;;;1999.90;999.90;;;15.50;99.90;;;;;;4915403;29;20111;-77
2022/05/14 00:47:32;;;;;;;1999.90;999.90;;;15.50;99.90;;;;;;4917290;29;20021;-83
2022/05/14 00:49:57;;;;;;;1999.90;999.90;;;15.40;99.90;;;;;;4917529;29;20066;-77
2022/05/14 00:52:23;;;;;;;1999.90;999.90;;;15.40;99.90;;;;;;4915897;29;20488;-82
2022/05/14 00:55:00;;;;;;;1999.90;999.90;;;15.40;99.90;;;;;;4917208;29;20059;-77
2022/05/14 00:57:30;;;;;;;1999.90;999.90;;;15.40;99.90;;;;;;4906881;29;20028;-77
2022/05/14 00:59:59;;;;;;;1999.90;999.90;;;15.50;99.90;;;;;;4913207;29;20033;-77
2022/05/14 01:02:25;;;;;;;1999.90;999.90;;;15.50;99.90;;;;;;4916288;29;20387;-77
2022/05/14 01:04:51;;;;;;;1999.90;999.90;;;15.50;99.90;;;;;;4916780;29;20110;-77
2022/05/14 01:07:20;;;;;;;1999.90;999.90;;;15.40;99.90;;;;;;4916852;29;20111;-77
2022/05/14 01:09:56;;;;;;;1999.90;999.90;;;15.40;99.90;;;;;;4916948;29;20032;-77
2022/05/14 01:12:24;;;;;;;1999.90;999.90;;;15.30;99.90;;;;;;4915637;29;20495;-82
2022/05/14 01:14:51;;;;;;;1999.90;999.90;;;15.40;99.90;;;;;;4903830;29;20514;-82
2022/05/14 01:17:17;;;;;;;1999.90;999.90;;;15.30;99.90;;;;;;4916607;29;20020;-82
2022/05/14 01:19:42;;;;;;;1999.90;999.90;;;15.40;99.90;;;;;;4916122;29;20034;-77
2022/05/14 01:22:20;;;;;;;1999.90;999.90;;;15.40;99.90;;;;;;4917068;29;20031;-77
2022/05/14 01:27:50;;;;;;;;;;;15.30;99.90;;;;;;4915326;29;20043;-77
2022/05/14 01:30:17;;;;;;;1999.90;999.90;;;15.30;99.90;;;;;;4916851;29;19908;-77
2022/05/14 01:32:46;;;;;;;1999.90;999.90;;;15.30;99.90;;;;;;4904586;29;20073;-77
2022/05/14 01:35:15;;;;;;;1999.90;999.90;;;15.20;99.90;;;;;;4912338;29;20430;-77
2022/05/14 01:37:41;;;;;;;1999.90;999.90;;;15.20;99.90;;;;;;4920430;29;20372;-77
2022/05/14 01:40:07;;;;;;;1999.90;999.90;;;15.10;99.90;;;;;;4920687;29;20079;-77
2022/05/14 01:42:33;;;;;;;1999.90;999.90;;;15.10;99.90;;;;;;4921137;29;20028;-82
2022/05/14 01:44:59;;;;;;;1999.90;999.90;;;15.00;99.90;;;;;;4916649;29;20024;-81
2022/05/14 01:47:24;;;;;;;1999.90;999.90;;;15.00;99.90;;;;;;4916820;29;20036;-82
2022/05/14 01:49:50;;;;;;;1999.90;999.90;;;15.00;99.90;;;;;;4916876;29;20043;-77
2022/05/14 01:52:16;;;;;;;1999.90;999.90;;;15.00;99.90;;;;;;4917122;29;20092;-77
2022/05/14 01:54:41;;;;;;;1999.90;999.90;;;15.00;99.90;;;;;;4916492;29;20084;-80
2022/05/14 01:57:07;;;;;;;1999.90;999.90;;;15.00;99.90;;;;;;4917807;29;20446;-82
2022/05/14 01:59:33;;;;;;;1999.90;999.90;;;15.10;99.90;;;;;;4916407;29;20023;-77
2022/05/14 02:02:00;;;;;;;1999.90;999.90;;;15.10;99.90;;;;;;4909739;29;20036;-77
2022/05/14 02:04:26;;;;;;;1999.90;999.90;;;15.00;99.90;;;;;;4911440;29;20020;-82
2022/05/14 02:06:52;;;;;;;1999.90;999.90;;;15.00;99.90;;;;;;4914989;29;20032;-82
2022/05/14 02:09:19;;;;;;;1999.90;999.90;;;14.90;99.90;;;;;;4916366;29;20028;-77
2022/05/14 02:11:45;;;;;;;1999.90;999.90;;;14.80;99.90;;;;;;4912658;29;20567;-77
2022/05/14 02:14:12;;;;;;;1999.90;999.90;;;14.70;99.90;;;;;;4913827;29;20107;-77
2022/05/14 02:16:38;;;;;;;1999.90;999.90;;;14.70;99.90;;;;;;4919860;29;20107;-77
2022/05/14 02:19:04;;;;;;;1999.90;999.90;;;14.60;99.90;;;;;;4918800;29;20095;-77
2022/05/14 02:21:32;;;;;;;1999.90;999.90;;;14.50;99.90;;;;;;4908617;29;20055;-77
2022/05/14 02:23:59;;;;;;;1999.90;999.90;;;14.50;99.90;;;;;;4919798;29;20035;-77
2022/05/14 02:26:24;;;;;;;1999.90;999.90;;;14.50;99.90;;;;;;4920002;29;20123;-77
2022/05/14 02:28:50;;;;;;;1999.90;999.90;;;14.40;99.90;;;;;;4922628;29;20110;-77
2022/05/14 02:31:16;;;;;;;1999.90;999.90;;;14.40;99.90;;;;;;4918068;29;20036;-82
2022/05/14 02:33:42;;;;;;;1999.90;999.90;;;14.40;99.90;;;;;;4919704;29;20036;-77
2022/05/14 02:36:08;;;;;;;1999.90;999.90;;;14.30;99.90;;;;;;4919343;29;20431;-82
2022/05/14 02:38:36;;;;;;;1999.90;999.90;;;14.30;99.90;;;;;;4929111;29;20020;-77
2022/05/14 02:41:02;;;;;;;1999.90;999.90;;;14.30;99.90;;;;;;4919200;29;20058;-77
2022/05/14 02:43:28;;;;;;;1999.90;999.90;;;14.30;99.90;;;;;;4921471;29;20373;-82
2022/05/14 02:45:54;;;;;;;1999.90;999.90;;;14.30;99.90;;;;;;4918293;29;20043;-77
2022/05/14 02:48:23;;;;;;;1999.90;999.90;;;14.30;99.90;;;;;;4924768;29;20039;-77
2022/05/14 02:50:48;;;;;;;1999.90;999.90;;;14.30;99.90;;;;;;4919404;29;20052;-77
2022/05/14 02:53:14;;;;;;;1999.90;999.90;;;14.20;99.90;;;;;;4919317;29;20068;-77
2022/05/14 02:55:40;;;;;;;1999.90;999.90;;;14.10;99.90;;;;;;4919090;29;20048;-77
2022/05/14 02:58:05;;;;;;;1999.90;999.90;;;14.10;99.90;;;;;;4915328;29;20033;-77
2022/05/14 03:00:31;;;;;;;1999.90;999.90;;;14.10;99.90;;;;;;4909596;29;20399;-77
2022/05/14 03:02:57;;;;;;;1999.90;999.90;;;14.10;99.90;;;;;;4918043;29;20104;-77
2022/05/14 03:05:23;;;;;;;1999.90;999.90;;;14.10;99.90;;;;;;4917616;29;20040;-77
2022/05/14 03:07:49;;;;;;;1999.90;999.90;;;14.20;99.90;;;;;;4917816;29;20114;-82
2022/05/14 03:10:16;;;;;;;1999.90;999.90;;;14.20;99.90;;;;;;4917865;29;20032;-77
2022/05/14 03:12:42;;;;;;;1999.90;999.90;;;14.20;99.90;;;;;;4917236;29;20184;-82
2022/05/14 03:15:10;;;;;;;1999.90;999.90;;;14.30;99.90;;;;;;4917164;29;20032;-77
2022/05/14 03:17:35;;;;;;;1999.90;999.90;;;14.20;99.90;;;;;;4918627;29;20493;-77
2022/05/14 03:20:07;;;;;;;1999.90;999.90;;;14.20;99.90;;;;;;4914225;29;20056;-77
2022/05/14 03:22:38;;;;;;;1999.90;999.90;;;14.20;99.90;;;;;;4913770;29;20031;-77
2022/05/14 03:25:06;;;;;;;1999.90;999.90;;;14.10;99.90;;;;;;4918840;29;20040;-77
2022/05/14 03:27:31;;;;;;;1999.90;999.90;;;14.10;99.90;;;;;;4923704;29;20028;-77
2022/05/14 03:29:57;;;;;;;1999.90;999.90;;;14.00;99.90;;;;;;4917115;29;20032;-77
2022/05/14 03:32:24;;;;;;;1999.90;999.90;;;13.90;99.90;;;;;;4917303;29;20028;-82
2022/05/14 03:34:50;;;;;;;1999.90;999.90;;;13.90;99.90;;;;;;4918540;29;20447;-77
2022/05/14 03:37:16;;;;;;;1999.90;999.90;;;13.90;99.90;;;;;;4919145;29;20522;-77
2022/05/14 03:39:42;;;;;;;1999.90;999.90;;;13.90;99.90;;;;;;4926439;29;20068;-77
2022/05/14 03:42:08;;;;;;;1999.90;999.90;;;13.90;99.90;;;;;;4921214;29;20023;-77
2022/05/14 03:44:33;;;;;;;1999.90;999.90;;;13.90;99.90;;;;;;4918341;29;20066;-77
2022/05/14 03:46:59;;;;;;;1999.90;999.90;;;13.90;99.90;;;;;;4914304;29;20095;-77
2022/05/14 03:49:25;;;;;;;1999.90;999.90;;;13.90;99.90;;;;;;4920147;29;20036;-82
2022/05/14 03:51:52;;;;;;;1999.90;999.90;;;14.00;99.90;;;;;;4917128;29;20036;-77
2022/05/14 03:54:18;;;;;;;1999.90;999.90;;;14.00;99.90;;;;;;4927369;29;20047;-77
2022/05/14 03:56:44;;;;;;;1999.90;999.90;;;14.00;99.90;;;;;;4919363;29;20024;-77
2022/05/14 03:59:10;;;;;;;1999.90;999.90;;;14.10;99.90;;;;;;4918180;29;20104;-81
2022/05/14 04:01:36;;;;;;;1999.90;999.90;;;14.10;99.90;;;;;;4918534;29;20095;-77
2022/05/14 04:04:03;;;;;;;1999.90;999.90;;;14.00;99.90;;;;;;4917862;29;20032;-77
2022/05/14 04:06:29;;;;;;;1999.90;999.90;;;14.00;99.90;;;;;;4913543;29;20047;-77
2022/05/14 04:08:54;;;;;;;1999.90;999.90;;;14.10;99.90;;;;;;4914036;29;20028;-82
2022/05/14 04:11:23;;;;;;;1999.90;999.90;;;14.10;99.90;;;;;;4904858;29;20068;-77
2022/05/14 04:13:48;;;;;;;1999.90;999.90;;;14.10;99.90;;;;;;4917478;29;20032;-77
2022/05/14 04:16:14;;;;;;;1999.90;999.90;;;14.20;99.90;;;;;;4916045;29;20032;-77
2022/05/14 04:18:40;;;;;;;1999.90;999.90;;;14.20;99.90;;;;;;4916446;29;20025;-77
2022/05/14 04:21:06;;;;;;;1999.90;999.90;;;14.20;99.90;;;;;;4917420;29;20032;-77
2022/05/14 04:23:32;;;;;;;1999.90;999.90;;;14.20;99.90;;;;;;4916402;29;20028;-77
2022/05/14 04:25:59;;;;;;;1999.90;999.90;;;14.20;99.90;;;;;;4917633;29;20039;-76
2022/05/14 04:28:26;;;;;;;1999.90;999.90;;;14.10;99.90;;;;;;4922128;29;20024;-82
2022/05/14 04:30:52;;;;;;;1999.90;999.90;;;14.10;99.90;;;;;;4917077;29;20078;-82
2022/05/14 04:33:18;;;;;;;1999.90;999.90;;;14.10;99.90;;;;;;4916425;29;20560;-77
2022/05/14 04:35:45;;;;;;;1999.90;999.90;;;14.20;99.90;;;;;;4917231;29;20099;-77
2022/05/14 04:38:14;;;;;;;1999.90;999.90;;;14.20;99.90;;;;;;4925187;29;20038;-77
2022/05/14 04:40:40;;;;;;;1999.90;999.90;;;14.20;99.90;;;;;;4917779;29;20059;-77
2022/05/14 04:43:08;;;;;;;1999.90;999.90;;;14.20;99.90;;;;;;4921668;29;20031;-77
2022/05/14 04:45:33;;;;;;;1999.90;999.90;;;14.20;99.90;;;;;;4917029;29;20076;-77
2022/05/14 04:48:00;;;;;;;1999.90;999.90;;;14.20;99.90;;;;;;4921364;29;20027;-82
2022/05/14 04:50:26;;;;;;;1999.90;999.90;;;14.20;99.90;;;;;;4916875;29;20510;-82
2022/05/14 04:52:51;;;;;;;1999.90;999.90;;;14.30;99.90;;;;;;4917529;29;20043;-77
2022/05/14 04:55:17;;;;;;;1999.90;999.90;;;14.30;99.90;;;;;;4918860;29;20044;-77
2022/05/14 04:57:43;;;;;;;1999.90;999.90;;;14.40;99.90;;;;;;4925047;29;20024;-77
2022/05/14 05:00:14;;;;;;;1999.90;999.90;;;14.50;99.90;;;;;;4917321;29;20392;-77
2022/05/14 05:05:26;;;;;;;1999.90;999.90;;;14.50;99.90;;;;;;4916478;29;20038;-82
2022/05/14 05:07:52;;;;;;;1999.90;999.90;;;14.60;99.90;;;;;;4917336;29;20035;-82
2022/05/14 05:10:18;;;;;;;1999.90;999.90;;;14.70;99.90;;;;;;4917512;29;20399;-77
2022/05/14 05:12:44;;;;;;;1999.90;999.90;;;14.80;99.90;;;;;;4916779;29;20036;-77
2022/05/14 05:15:13;;;;;;;1999.90;999.90;;;14.90;99.90;;;;;;4915936;29;20036;-77
2022/05/14 05:17:39;;;;;;;1999.90;999.90;;;14.90;99.90;;;;;;4916724;29;20395;-82
2022/05/14 05:20:05;;;;;;;1999.90;999.90;;;14.90;99.90;;;;;;4916694;29;20039;-77
2022/05/14 05:22:31;;;;;;;1999.90;999.90;;;15.00;99.90;;;;;;4915513;29;20035;-77
2022/05/14 05:24:57;;;;;;;1999.90;999.90;;;14.90;99.90;;;;;;4916078;29;20032;-82
2022/05/14 05:27:23;;;;;;;1999.90;999.90;;;15.00;99.90;;;;;;4921393;29;20032;-77
2022/05/14 05:29:49;;;;;;;1999.90;999.90;;;14.90;99.90;;;;;;4916534;29;20036;-77
2022/05/14 05:32:15;;;;;;;1999.90;999.90;;;14.90;99.90;;;;;;4916975;29;20463;-77
2022/05/14 05:34:41;;;;;;;1999.90;999.90;;;14.90;99.90;;;;;;4916710;29;20046;-77
2022/05/14 05:37:06;;;;;;;1999.90;999.90;;;14.80;99.90;;;;;;4916635;29;20103;-76
2022/05/14 05:39:32;;;;;;;1999.90;999.90;;;14.90;99.90;;;;;;4926466;29;20032;-77
2022/05/14 05:41:58;;;;;;;1999.90;999.90;;;15.00;99.90;;;;;;4919160;29;20020;-77
2022/05/14 05:44:28;;;;;;;1999.90;999.90;;;15.00;99.90;;;;;;4917652;29;20032;-77
2022/05/14 05:46:54;;;;;;;1999.90;999.90;;;15.10;99.90;;;;;;4919116;29;20033;-77
2022/05/14 05:49:21;;;;;;;1999.90;999.90;;;15.20;99.90;;;;;;4925677;29;20032;-77
2022/05/14 05:51:47;;;;;;;1999.90;999.90;;;15.30;99.90;;;;;;4919098;29;20451;-77
2022/05/14 05:56:59;;;;;;;1999.90;999.90;;;15.50;99.90;;;;;;4930110;29;20083;-77
2022/05/14 05:59:27;;;;;;;1999.90;999.90;;;15.70;99.90;;;;;;4918322;29;20550;-82
2022/05/14 06:01:52;;;;;;;1999.90;999.90;;;16.00;99.90;;;;;;4918991;29;20111;-77
2022/05/14 06:04:19;;;;;;;1999.90;999.90;;;16.20;99.90;;;;;;4918794;29;20491;-77
2022/05/14 06:06:46;;;;;;;1999.90;999.90;;;16.30;99.90;;;;;;4919634;29;20376;-77
2022/05/14 06:09:15;;;;;;;1999.90;999.90;;;16.40;99.90;;;;;;4919768;29;20062;-77
2022/05/14 06:11:42;;;;;;;1999.90;999.90;;;16.40;99.90;;;;;;4907257;29;20035;-77
2022/05/14 06:14:08;;;;;;;1999.90;999.90;;;16.50;99.90;;;;;;4919749;29;20035;-83
2022/05/14 06:16:33;;;;;;;1999.90;999.90;;;16.60;99.90;;;;;;4917926;29;20028;-77
2022/05/14 06:18:59;;;;;;;1999.90;999.90;;;16.60;99.90;;;;;;4905914;29;20536;-76
2022/05/14 06:21:25;;;;;;;1999.90;999.90;;;16.60;99.90;;;;;;4919757;29;20103;-83
2022/05/14 06:23:51;;;;;;;1999.90;999.90;;;16.60;99.90;;;;;;4920267;29;20028;-77
2022/05/14 06:26:17;;;;;;;1999.90;999.90;;;16.60;99.90;;;;;;4918540;29;20068;-82
2022/05/14 06:28:43;;;;;;;1999.90;999.90;;;16.70;99.90;;;;;;4923933;29;20036;-77
2022/05/14 06:31:09;;;;;;;1999.90;999.90;;;16.80;99.90;;;;;;4918331;29;20039;-77
2022/05/14 06:33:34;;;;;;;1999.90;999.90;;;16.90;99.90;;;;;;4917725;29;20028;-78
2022/05/14 06:36:00;;;;;;;1999.90;999.90;;;17.00;99.90;;;;;;4919009;29;20051;-77
2022/05/14 06:38:29;;;;;;;1999.90;999.90;;;17.10;99.90;;;;;;4924466;29;20119;-81
2022/05/14 06:40:54;;;;;;;1999.90;999.90;;;17.10;99.90;;;;;;4918584;29;20028;-78
2022/05/14 06:43:20;;;;;;;1999.90;999.90;;;17.10;99.90;;;;;;4922716;29;20051;-77
2022/05/14 06:45:46;;;;;;;1999.90;999.90;;;17.10;99.90;;;;;;4918349;29;20080;-77
2022/05/14 06:48:13;;;;;;;1999.90;999.90;;;17.20;99.90;;;;;;4916457;29;20032;-78
2022/05/14 06:50:44;;;;;;;1999.90;999.90;;;17.30;99.90;;;;;;4919678;29;20028;-83
2022/05/14 06:53:12;;;;;;;1999.90;999.90;;;17.40;99.90;;;;;;4921343;29;20035;-83
2022/05/14 06:55:39;;;;;;;1999.90;999.90;;;17.50;99.90;;;;;;4930274;29;20437;-77
2022/05/14 06:58:07;;;;;;;1999.90;999.90;;;17.70;99.90;;;;;;4917337;29;20055;-83
2022/05/14 07:00:33;;;;;;;1999.90;999.90;;;17.80;99.90;;;;;;4919932;29;20020;-78
2022/05/14 07:08:28;;;;;;;1999.90;999.90;;;18.30;99.90;;;;;;4907874;29;20091;-82
2022/05/14 07:10:53;;;;;;;1999.90;999.90;;;18.50;99.90;;;;;;4919053;29;20028;-83
2022/05/14 07:13:19;;;;;;;1999.90;999.90;;;18.60;99.90;;;;;;4911709;29;20108;-83
2022/05/14 07:15:44;;;;;;;1999.90;999.90;;;18.80;99.90;;;;;;4914783;29;21374;-78
2022/05/14 07:18:10;;;;;;;1999.90;999.90;;;19.10;99.90;;;;;;4920183;29;20020;-80
2022/05/14 07:20:36;;;;;;;1999.90;999.90;;;19.20;99.90;;;;;;4918368;29;20392;-78
2022/05/14 07:23:03;;;;;;;1999.90;999.90;;;19.40;99.90;;;;;;4919036;29;20035;-78
2022/05/14 07:25:28;;;;;;;1999.90;999.90;;;19.60;99.90;;;;;;4921148;29;20026;-78
2022/05/14 07:27:54;;;;;;;1999.90;999.90;;;19.70;99.90;;;;;;4921740;29;20032;-78
2022/05/14 07:30:21;;;;;;;1999.90;999.90;;;19.90;99.90;;;;;;4918662;29;20109;-78
2022/05/14 07:32:47;;;;;;;1999.90;999.90;;;20.20;99.90;;;;;;4917624;29;20072;-77
2022/05/14 07:35:13;;;;;;;1999.90;999.90;;;20.30;99.90;;;;;;4918363;29;20032;-78
2022/05/14 07:37:46;;;;;;;1999.90;999.90;;;20.60;99.90;;;;;;4922335;29;20095;-83
2022/05/14 07:40:16;;;;;;;1999.90;999.90;;;21.10;99.90;;;;;;4922460;29;20029;-78
2022/05/14 07:42:48;;;;;;;1999.90;999.90;;;22.60;99.90;;;;;;4922465;29;20048;-78
2022/05/14 07:45:19;;;;;;;1999.90;999.90;;;24.60;99.80;;;;;;4918352;29;20491;-78
2022/05/14 07:47:46;;;;;;;1999.90;999.90;;;26.10;98.00;;;;;;4921489;29;20020;-84
2022/05/14 07:50:13;;;;;;;1999.90;999.90;;;27.20;96.30;;;;;;4921354;29;20040;-84
2022/05/14 07:52:39;;;;;;;1999.90;999.90;;;27.50;95.40;;;;;;4908681;29;20084;-78
2022/05/14 07:55:05;;;;;;;1999.90;999.90;;;28.00;94.60;;;;;;4915084;29;20039;-78
2022/05/14 07:57:31;;;;;;;1999.90;999.90;;;28.20;94.40;;;;;;4918275;29;20035;-79
2022/05/14 07:59:57;;;;;;;1999.90;999.90;;;28.80;93.80;;;;;;4918255;29;20039;-78
2022/05/14 08:02:31;;;;;;;1999.90;999.90;;;29.00;93.20;;;;;;4918003;29;20036;-83
2022/05/14 08:04:58;;;;;;;1999.90;999.90;;;29.10;93.10;;;;;;4917819;29;20028;-83
2022/05/14 08:07:24;;;;;;;1999.90;999.90;;;29.50;93.00;;;;;;4918157;29;20028;-78
2022/05/14 08:09:50;;;;;;;1999.90;999.90;;;30.00;92.30;;;;;;4916651;29;20028;-84
2022/05/14 08:12:16;;;;;;;1999.90;999.90;;;30.40;92.10;;;;;;4917622;29;20511;-78
2022/05/14 08:14:42;;;;;;;1999.90;999.90;;;30.80;91.70;;;;;;4918051;29;20036;-78
2022/05/14 08:17:09;;;;;;;1999.90;999.90;;;30.90;91.30;;;;;;4919195;29;20522;-83
2022/05/14 08:19:35;;;;;;;1999.90;999.90;;;31.40;90.90;;;;;;4912825;29;20510;-79
2022/05/14 08:24:45;;;;;;;1999.90;999.90;;;32.30;90.10;;;;;;4917727;29;20027;-78
2022/05/14 08:27:11;;;;;;;1999.90;999.90;;;32.40;90.10;;;;;;4923108;29;20032;-78
2022/05/14 08:29:37;;;;;;;1999.90;999.90;;;32.20;89.50;;;;;;4916376;29;20028;-78
2022/05/14 08:32:05;;;;;;;1999.90;999.90;;;31.80;89.70;;;;;;4917444;29;20038;-83
2022/05/14 08:34:31;;;;;;;1999.90;999.90;;;31.60;90.30;;;;;;4916648;29;20024;-83
2022/05/14 08:36:57;;;;;;;1999.90;999.90;;;31.10;90.50;;;;;;4917540;29;20027;-78
2022/05/14 08:39:23;;;;;;;1999.90;999.90;;;31.10;90.60;;;;;;4926813;29;20107;-79
2022/05/14 08:41:50;;;;;;;1999.90;999.90;;;30.90;90.60;;;;;;4918944;29;20128;-83
2022/05/14 08:44:31;;;;;;;1999.90;999.90;;;31.10;90.50;;;;;;4927755;29;20024;-78
2022/05/14 08:47:04;;;;;;;1999.90;999.90;;;31.90;90.40;;;;;;4917341;29;20050;-78
2022/05/14 08:49:35;;;;;;;1999.90;999.90;;;31.60;89.60;;;;;;4926570;29;20080;-79
2022/05/14 08:52:04;;;;;;;1999.90;999.90;;;32.10;89.60;;;;;;4917420;29;20032;-84
2022/05/14 08:54:30;;;;;;;1999.90;999.90;;;32.50;87.80;;;;;;4916898;29;20351;-83
2022/05/14 08:57:35;;;;;;;1999.90;999.90;;;32.60;87.30;;;;;;4907220;29;20028;-79
2022/05/14 09:00:05;;;;;;;1999.90;999.90;;;32.30;87.80;;;;;;4917990;29;20024;-78
2022/05/14 09:02:33;;;;;;;1999.90;999.90;;;32.20;87.60;;;;;;4906187;29;20028;-83
2022/05/14 09:05:19;;;;;;;1999.90;999.90;;;32.60;88.00;;;;;;4916616;29;20111;-82
2022/05/14 09:07:45;;;;;;;1999.90;999.90;;;33.40;86.50;;;;;;4915497;29;20116;-83
2022/05/14 09:10:32;;;;;;;1999.90;999.90;;;33.20;86.80;;;;;;4905224;29;20064;-85
2022/05/14 09:13:18;;;;;;;1999.90;999.90;;;33.60;86.00;;;;;;4915878;29;20025;-85
2022/05/14 09:15:56;;;;;;;1999.90;999.90;;;33.50;85.10;;;;;;4918717;29;20051;-83
2022/05/14 09:18:27;;;;;;;1999.90;999.90;;;33.10;86.10;;;;;;4917779;29;20099;-83
2022/05/14 09:21:21;;;;;;;1999.90;999.90;;;33.40;86.10;;;;;;4915130;29;20028;-84
2022/05/14 09:24:03;;;;;;;1999.90;999.90;;;33.80;85.00;;;;;;4918305;29;20036;-84
2022/05/14 09:26:32;;;;;;;;;;;32.60;86.00;;;;;;4908062;29;20436;-78
2022/05/14 09:29:11;;;;;;;1999.90;999.90;;;31.70;87.70;;;;;;4920222;28;19997;-84
2022/05/14 09:31:59;;;;;;;1999.90;999.90;;;31.40;87.90;;;;;;4917535;29;20123;-79
2022/05/14 09:34:26;;;;;;;1999.90;999.90;;;30.80;89.40;;;;;;4904915;29;20016;-84
2022/05/14 09:36:52;;;;;;;1999.90;999.90;;;31.20;89.20;;;;;;4915529;29;20029;-83
2022/05/14 09:39:23;;;;;;;1999.90;999.90;;;31.00;89.00;;;;;;4926350;29;20031;-84
2022/05/14 09:41:56;;;;;;;1999.90;999.90;;;31.10;88.20;;;;;;4918231;29;20115;-78
2022/05/14 09:44:28;;;;;;;1999.90;999.90;;;31.00;88.10;;;;;;4926905;29;20036;-84
2022/05/14 09:47:14;;;;;;;;;;;31.40;88.20;;;;;;4917297;29;20034;-84
2022/05/14 09:49:42;;;;;;;1999.90;999.90;;;31.90;86.60;;;;;;4921616;29;19915;-83
2022/05/14 09:52:07;;;;;;;1999.90;999.90;;;31.60;87.50;;;;;;4904638;29;20476;-78
2022/05/14 09:54:41;;;;;;;1999.90;999.90;;;31.30;87.30;;;;;;4916554;29;20107;-83
2022/05/14 09:57:22;;;;;;;1999.90;999.90;;;31.20;87.70;;;;;;4926530;29;20111;-84
2022/05/14 09:59:59;;;;;;;1999.90;999.90;;;31.80;86.40;;;;;;4916532;29;20029;-84
2022/05/14 10:02:56;;;;;;;1999.90;999.90;;;32.80;85.30;;;;;;4918191;29;20020;-78
2022/05/14 10:05:39;;;;;;;1999.90;999.90;;;33.60;84.50;;;;;;4896765;29;20392;-79
2022/05/14 10:08:21;;;;;;;1999.90;999.90;;;33.30;83.70;;;;;;4914379;29;20035;-84
2022/05/14 10:11:04;;;;;;;1999.90;999.90;;;32.80;84.50;;;;;;4917107;29;20392;-79
2022/05/14 10:13:32;;;;;;;1999.90;999.90;;;33.40;84.10;;;;;;4906259;29;20036;-85
2022/05/14 10:16:07;;;;;;;1999.90;999.90;;;33.60;83.40;;;;;;4913923;29;20105;-79
2022/05/14 10:19:11;;;;;;;1999.90;999.90;;;33.70;83.70;;;;;;4914875;29;20484;-83
2022/05/14 10:21:55;;;;;;;1999.90;999.90;;;33.80;83.60;;;;;;4905855;29;20027;-84
2022/05/14 10:27:46;;;;;;;1999.90;999.90;;;34.40;82.70;;;;;;4922039;29;20083;-78
2022/05/14 10:30:20;;;;;;;1999.90;999.90;;;34.60;83.00;;;;;;4915595;29;20032;-79
2022/05/14 10:32:49;;;;;;;1999.90;999.90;;;34.10;82.50;;;;;;4900996;29;20088;-84
2022/05/14 10:35:21;;;;;;;1999.90;999.90;;;33.30;83.10;;;;;;4913971;29;20071;-78
2022/05/14 10:38:08;;;;;;;1999.90;999.90;;;32.70;83.70;;;;;;4923388;29;20140;-78
2022/05/14 10:40:37;;;;;;;1999.90;999.90;;;33.10;84.30;;;;;;4921782;29;20028;-83
2022/05/14 10:43:16;;;;;;;1999.90;999.90;;;33.90;83.30;;;;;;4924051;29;20025;-78
2022/05/14 10:45:45;;;;;;;1999.90;999.90;;;34.30;83.30;;;;;;4907444;29;20487;-84
2022/05/14 10:48:35;;;;;;;1999.90;999.90;;;34.50;82.40;;;;;;4924943;29;20102;-83
2022/05/14 10:51:03;;;;;;;1999.90;999.90;;;35.00;82.80;;;;;;4918465;29;20036;-79
2022/05/14 10:53:31;;;;;;;1999.90;999.90;;;35.00;81.10;;;;;;4923089;29;20576;-84
2022/05/14 10:56:35;;;;;;;1999.90;999.90;;;34.10;81.60;;;;;;4918834;29;20039;-78
2022/05/14 10:59:06;;;;;;;1999.90;999.90;;;34.10;81.80;;;;;;4907491;29;20064;-83
2022/05/14 11:01:41;;;;;;;1999.90;999.90;;;34.00;82.00;;;;;;4919754;29;20067;-79
2022/05/14 11:04:24;;;;;;;1999.90;999.90;;;34.30;82.00;;;;;;4919259;29;20024;-84
2022/05/14 11:07:00;;;;;;;1999.90;999.90;;;34.50;82.50;;;;;;4900524;29;20032;-78
2022/05/14 11:09:34;;;;;;;1999.90;999.90;;;34.60;81.00;;;;;;4914794;29;20024;-79
2022/05/14 11:12:03;;;;;;;1999.90;999.90;;;34.40;81.10;;;;;;4909577;29;20061;-79
2022/05/14 11:14:45;;;;;;;1999.90;999.90;;;34.70;80.90;;;;;;4915616;29;20020;-79
2022/05/14 11:17:23;;;;;;;1999.90;999.90;;;34.50;81.60;;;;;;4920646;29;20028;-79
2022/05/14 11:20:07;;;;;;;1999.90;999.90;;;34.40;81.00;;;;;;4916964;29;20020;-79
2022/05/14 11:22:51;;;;;;;1999.90;999.90;;;34.70;80.90;;;;;;4918481;29;20030;-83
2022/05/14 11:25:16;;;;;;;1999.90;999.90;;;35.10;81.10;;;;;;4918001;29;20036;-79
2022/05/14 11:28:08;;;;;;;1999.90;999.90;;;34.90;80.10;;;;;;4915202;29;20495;-79
2022/05/14 11:30:43;;;;;;;1999.90;999.90;;;34.90;79.50;;;;;;4918578;29;20391;-83
2022/05/14 11:33:26;;;;;;;1999.90;999.90;;;34.30;80.00;;;;;;4919147;29;20036;-79
2022/05/14 11:35:55;;;;;;;1999.90;999.90;;;34.30;79.80;;;;;;4917306;29;20032;-78
2022/05/14 11:38:23;;;;;;;1999.90;999.90;;;34.40;81.60;;;;;;4915027;29;20024;-82
2022/05/14 11:40:58;;;;;;;1999.90;999.90;;;34.80;81.50;;;;;;4900118;29;20084;-78
2022/05/14 11:43:38;;;;;;;1999.90;999.90;;;33.80;82.40;;;;;;4917599;29;20028;-82
2022/05/14 11:46:28;;;;;;;1999.90;999.90;;;33.20;83.80;;;;;;4918802;29;20070;-83
2022/05/14 11:49:15;;;;;;;1999.90;999.90;;;33.30;83.50;;;;;;4922860;29;20395;-82
2022/05/14 11:52:07;;;;;;;1999.90;999.90;;;33.20;82.60;;;;;;4918367;29;20099;-83
2022/05/14 11:54:40;;;;;;;1999.90;999.90;;;33.00;84.20;;;;;;4910606;29;20044;-82
2022/05/14 11:57:26;;;;;;;1999.90;999.90;;;33.20;83.60;;;;;;4916291;29;20443;-78
2022/05/14 12:00:03;;;;;;;1999.90;999.90;;;32.20;82.90;;;;;;4918496;29;20059;-78
2022/05/14 12:02:37;;;;;;;1999.90;999.90;;;31.20;84.60;;;;;;4918100;29;20484;-83
2022/05/14 12:05:06;;;;;;;1999.90;999.90;;;31.50;84.10;;;;;;4917917;29;20095;-78
2022/05/14 12:07:50;;;;;;;1999.90;999.90;;;32.50;84.70;;;;;;4905935;29;20030;-78
2022/05/14 12:11:00;;;;;;;1999.90;999.90;;;33.20;82.60;;;;;;4922392;29;20032;-78
2022/05/14 12:14:07;;;;;;;1999.90;999.90;;;33.10;81.90;;;;;;4902053;28;20047;-78
2022/05/14 12:16:41;;;;;;;1999.90;999.90;;;33.40;83.40;;;;;;4908061;29;20368;-82
2022/05/14 12:19:14;;;;;;;1999.90;999.90;;;33.50;82.50;;;;;;4917701;29;20027;-78
2022/05/14 12:21:42;;;;;;;1999.90;999.90;;;33.30;82.60;;;;;;4917459;29;20472;-83
2022/05/14 12:24:28;;;;;;;1999.90;999.90;;;33.40;83.10;;;;;;4913471;29;20131;-78
2022/05/14 12:26:54;;;;;;;1999.90;999.90;;;33.20;82.10;;;;;;4914100;29;20467;-78
2022/05/14 12:29:26;;;;;;;1999.90;999.90;;;33.30;80.80;;;;;;4917339;29;20083;-78
2022/05/14 12:34:46;;;;;;;1999.90;999.90;;;33.10;81.80;;;;;;4909259;29;20039;-78
2022/05/14 12:37:32;;;;;;;1999.90;999.90;;;32.50;82.60;;;;;;4916851;29;20024;-83